logo
Search for airport 
image banner adimage banner adimage banner ad
image banner ad

EHS032 - Cabauw

Located in , Netherlands

ICAO - , IATA -

Data provided by Airmate  

General information

Coordinates: N51°58'16" E4°53'17"
Elevation is feet MSL.
 
View others Airports in Zuid-Holland

Operational data

Special qualification required
Current time UTC:
Current local time:
Weather at : EHRD - Rotterdam/Rotterdam ( 31 km )
METAR: EHRD 280155Z AUTO 21007KT 170V240 9999 FEW047 11/09 Q1017 NOSIG
TAF: TAF EHRD 272259Z 2800/2906 21008KT CAVOK PROB30 TEMPO 2803/2807 SCT008 BKN012 BECMG 2813/2816 -RA BKN013 BECMG 2816/2819 BKN007 TEMPO 2816/2903 4500 RADZ BECMG 2902/2905 25015KT BKN018 TEMPO 2903/2906 6000 SHRA SCT018CB
View NOTAMs / SUP AIP / TFR affecting this airport [VIEW]
Communications frequencies: [VIEW]

Runways:

Airport contact information

Address: Netherlands

Satellite view of EHS032